Time;durP1;ratioP1;P1;durP2;ratioP2;P2;SDS_P1;SDS_P2;PMS_P1;PMS_P2;Temp;Humidity;BMP_temperature;BMP_pressure;BME280_temperature;BME280_humidity;BME280_pressure;Samples;Min_cycle;Max_cycle;Signal;HPM_P1;HPM_P2
2023/10/19 00:00:40;;;;;;;20.98;12.23;;;8.10;99.90;;;;;;5094334;28;20072;-72
2023/10/19 00:03:06;;;;;;;19.48;12.63;;;8.10;99.90;;;;;;5094680;28;20525;-72
2023/10/19 00:05:35;;;;;;;18.92;11.52;;;8.10;99.90;;;;;;5094231;28;20134;-72
2023/10/19 00:08:14;;;;;;;19.98;12.25;;;8.10;99.90;;;;;;5094573;28;20079;-72
2023/10/19 00:10:47;;;;;;;19.17;13.38;;;8.10;99.90;;;;;;5094696;28;20044;-72
2023/10/19 00:13:14;;;;;;;21.60;12.73;;;8.10;99.90;;;;;;5094510;28;20075;-72
2023/10/19 00:15:48;;;;;;;23.40;13.18;;;8.10;99.90;;;;;;5094394;28;20487;-73
2023/10/19 00:23:13;;;;;;;20.27;12.15;;;8.40;99.90;;;;;;5093815;28;20052;-72
2023/10/19 00:25:44;;;;;;;23.40;13.98;;;8.00;99.90;;;;;;5094525;28;20384;-72
2023/10/19 00:28:12;;;;;;;21.38;12.68;;;8.40;99.90;;;;;;5092829;28;20131;-72
2023/10/19 00:30:39;;;;;;;21.77;13.30;;;8.00;99.90;;;;;;5084334;28;20055;-72
2023/10/19 00:33:15;;;;;;;23.83;13.85;;;8.00;99.90;;;;;;5093568;28;20466;-72
2023/10/19 00:35:47;;;;;;;24.35;14.43;;;8.00;99.90;;;;;;5094346;28;20048;-72
2023/10/19 00:41:06;;;;;;;23.83;14.15;;;7.90;99.90;;;;;;5093432;28;20048;-73
2023/10/19 00:43:45;;;;;;;22.13;13.68;;;8.60;99.90;;;;;;5093250;28;20059;-72
2023/10/19 00:48:55;;;;;;;26.60;15.57;;;7.90;99.90;;;;;;5093276;28;20052;-73
2023/10/19 00:54:10;;;;;;;27.30;15.05;;;8.00;99.90;;;;;;5092958;28;20140;-71
2023/10/19 00:56:36;;;;;;;;;;;8.00;99.90;;;;;;5093666;28;20433;-72
2023/10/19 00:59:14;;;;;;;22.17;14.13;;;8.20;99.90;;;;;;5093307;28;19919;-72
2023/10/19 01:01:47;;;;;;;27.55;15.80;;;7.90;99.90;;;;;;5093272;28;20048;-72
2023/10/19 01:04:32;;;;;;;22.83;14.90;;;8.40;99.90;;;;;;5093643;28;20131;-72
2023/10/19 01:07:15;;;;;;;26.73;15.30;;;7.90;99.90;;;;;;5093165;28;20055;-72
2023/10/19 01:09:43;;;;;;;26.17;15.30;;;7.90;99.90;;;;;;5092954;28;20040;-72
2023/10/19 01:12:25;;;;;;;23.45;15.23;;;7.90;99.90;;;;;;5092805;28;20394;-72
2023/10/19 01:17:56;;;;;;;25.00;15.88;;;7.80;99.90;;;;;;5092742;28;20130;-72
2023/10/19 01:26:07;;;;;;;27.15;15.73;;;7.90;99.90;;;;;;5093169;28;20048;-72
2023/10/19 01:28:42;;;;;;;27.02;17.00;;;7.90;99.90;;;;;;5092738;28;20044;-72
2023/10/19 01:31:16;;;;;;;27.67;16.90;;;7.90;99.90;;;;;;5092016;28;20097;-72
2023/10/19 01:33:46;;;;;;;26.50;15.73;;;7.90;99.90;;;;;;5093161;28;20036;-72
2023/10/19 01:38:48;;;;;;;29.60;17.45;;;7.90;99.90;;;;;;5092369;28;20388;-72
2023/10/19 01:41:13;;;;;;;;;;;7.90;99.90;;;;;;5093469;28;20131;-72
2023/10/19 01:43:43;;;;;;;25.13;15.85;;;8.00;99.90;;;;;;5092512;28;19924;-72
2023/10/19 01:46:12;;;;;;;27.70;17.60;;;8.50;99.90;;;;;;5092134;28;20050;-72
2023/10/19 01:48:40;;;;;;;26.40;16.30;;;7.90;99.90;;;;;;5092682;28;20138;-72
2023/10/19 01:51:10;;;;;;;25.13;16.25;;;8.00;99.90;;;;;;5091878;28;20051;-71
2023/10/19 01:53:44;;;;;;;29.48;17.25;;;8.00;99.90;;;;;;5092519;28;20491;-72
2023/10/19 01:56:12;;;;;;;26.88;16.45;;;8.00;99.90;;;;;;5091412;28;20495;-72
2023/10/19 01:58:39;;;;;;;26.25;15.93;;;8.00;99.90;;;;;;5091999;28;20066;-72
2023/10/19 02:01:08;;;;;;;27.73;18.00;;;8.00;99.90;;;;;;5092322;28;20040;-72
2023/10/19 02:03:35;;;;;;;25.25;15.43;;;8.00;99.90;;;;;;5092122;28;20491;-72
2023/10/19 02:06:20;;;;;;;26.23;16.88;;;8.00;99.90;;;;;;5091084;28;20074;-72
2023/10/19 02:08:51;;;;;;;21.67;14.82;;;8.00;99.90;;;;;;5092530;28;20052;-72
2023/10/19 02:11:21;;;;;;;22.50;14.65;;;8.00;99.90;;;;;;5091984;28;20043;-72
2023/10/19 02:13:49;;;;;;;22.80;15.10;;;8.00;99.90;;;;;;5091469;28;20045;-73
2023/10/19 02:16:22;;;;;;;21.60;14.05;;;8.00;99.90;;;;;;5092315;28;20048;-72
2023/10/19 02:18:51;;;;;;;22.58;14.65;;;8.00;99.90;;;;;;5091579;28;20093;-72
2023/10/19 02:21:29;;;;;;;23.73;14.70;;;8.10;99.90;;;;;;5091839;28;20055;-72
2023/10/19 02:23:54;;;;;;;20.55;13.77;;;8.10;99.90;;;;;;5091947;28;20054;-72
2023/10/19 02:26:26;;;;;;;;;;;8.10;99.90;;;;;;5092047;28;20039;-72
2023/10/19 02:28:56;;;;;;;19.17;12.68;;;8.10;99.90;;;;;;5091731;28;19920;-72
2023/10/19 02:31:23;;;;;;;18.70;12.30;;;8.20;99.90;;;;;;5091951;28;20082;-72
2023/10/19 02:33:58;;;;;;;17.20;11.57;;;8.10;99.90;;;;;;5090833;28;20040;-72
2023/10/19 02:36:29;;;;;;;16.10;10.93;;;8.10;99.90;;;;;;5075076;28;20403;-72
2023/10/19 02:38:58;;;;;;;16.25;11.48;;;9.50;99.90;;;;;;5091977;28;20044;-72
2023/10/19 02:41:26;;;;;;;16.92;11.07;;;8.60;99.90;;;;;;5091345;28;20051;-72
2023/10/19 02:44:02;;;;;;;15.48;10.30;;;8.20;99.90;;;;;;5091307;28;20043;-72
2023/10/19 02:46:34;;;;;;;14.90;9.55;;;8.20;99.90;;;;;;5092212;28;20144;-72
2023/10/19 02:49:04;;;;;;;15.30;9.95;;;8.70;99.90;;;;;;5091593;28;20048;-72
2023/10/19 02:51:30;;;;;;;13.52;9.20;;;8.20;99.90;;;;;;5092267;28;20050;-71
2023/10/19 02:54:00;;;;;;;13.70;9.38;;;8.20;99.90;;;;;;5090734;28;20564;-71
2023/10/19 02:56:27;;;;;;;13.80;9.10;;;8.20;99.90;;;;;;5091489;28;20437;-72
2023/10/19 02:58:52;;;;;;;14.15;9.13;;;8.10;99.90;;;;;;5091197;28;20108;-72
2023/10/19 03:01:22;;;;;;;;;;;8.10;99.90;;;;;;5091801;28;20048;-72
2023/10/19 03:03:59;;;;;;;12.15;8.15;;;8.20;99.90;;;;;;5091418;28;19916;-72
2023/10/19 03:06:25;;;;;;;13.55;8.32;;;8.20;99.90;;;;;;5091392;28;20505;-72
2023/10/19 03:08:57;;;;;;;13.43;8.20;;;8.10;99.90;;;;;;5090448;28;20081;-72
2023/10/19 03:11:24;;;;;;;11.80;7.75;;;8.90;99.90;;;;;;5091940;28;20040;-72
2023/10/19 03:13:50;;;;;;;13.80;8.68;;;8.30;99.90;;;;;;5091197;28;20086;-72
2023/10/19 03:16:17;;;;;;;;;;;8.20;99.90;;;;;;5090949;28;20076;-72
2023/10/19 03:18:43;;;;;;;11.15;7.68;;;8.20;99.90;;;;;;5091335;28;20375;-72
2023/10/19 03:21:10;;;;;;;12.05;7.82;;;8.20;99.90;;;;;;5091181;28;20135;-72
2023/10/19 03:23:37;;;;;;;10.65;6.95;;;8.60;99.90;;;;;;5090649;28;20076;-72
2023/10/19 03:28:49;;;;;;;12.63;7.75;;;8.20;99.90;;;;;;5089965;28;20449;-72
2023/10/19 03:31:17;;;;;;;11.07;7.18;;;8.20;99.90;;;;;;5091200;28;20076;-72
2023/10/19 03:33:49;;;;;;;9.40;6.70;;;8.20;99.90;;;;;;5090922;28;20036;-71
2023/10/19 03:36:15;;;;;;;10.10;6.93;;;8.30;99.90;;;;;;5092055;28;20047;-72
2023/10/19 03:38:41;;;;;;;;;;;8.30;99.90;;;;;;5092656;28;20040;-72
2023/10/19 03:41:08;;;;;;;9.85;6.63;;;8.30;99.90;;;;;;5091097;28;19928;-71
2023/10/19 03:43:34;;;;;;;8.52;5.85;;;8.30;99.90;;;;;;5090578;28;20495;-72
2023/10/19 03:48:48;;;;;;;9.18;6.25;;;8.30;99.90;;;;;;5090928;28;19920;-72
2023/10/19 03:51:14;;;;;;;10.63;6.65;;;8.30;99.90;;;;;;5090329;28;20048;-72
2023/10/19 03:53:44;;;;;;;;;;;8.30;99.90;;;;;;5091241;28;20044;-72
2023/10/19 03:56:11;;;;;;;9.05;5.80;;;8.30;99.90;;;;;;5090501;28;19927;-72
2023/10/19 03:58:39;;;;;;;9.65;5.93;;;8.30;99.90;;;;;;5090657;28;20163;-72
2023/10/19 04:01:05;;;;;;;9.25;6.03;;;9.30;99.90;;;;;;5090899;28;20076;-72
2023/10/19 04:03:31;;;;;;;;;;;8.30;99.90;;;;;;5091500;28;20121;-72
2023/10/19 04:06:01;;;;;;;7.28;5.20;;;8.30;99.90;;;;;;5090111;28;19948;-71
2023/10/19 04:08:31;;;;;;;7.78;5.18;;;8.30;99.90;;;;;;5074277;28;20048;-72
2023/10/19 04:11:11;;;;;;;7.97;5.35;;;8.30;99.90;;;;;;5089953;28;20048;-72
2023/10/19 04:13:38;;;;;;;8.25;5.30;;;8.40;99.90;;;;;;5086790;28;20049;-72
2023/10/19 04:16:09;;;;;;;8.05;5.47;;;9.00;99.90;;;;;;5090422;28;20043;-72
2023/10/19 04:18:34;;;;;;;8.27;5.57;;;8.40;99.90;;;;;;5092635;28;20434;-71
2023/10/19 04:21:02;;;;;;;;;;;8.40;99.90;;;;;;5094250;28;20093;-72
2023/10/19 04:23:28;;;;;;;8.85;5.65;;;9.20;99.90;;;;;;5094528;28;19924;-72
2023/10/19 04:25:56;;;;;;;;;;;8.40;99.90;;;;;;5093573;28;20101;-74
2023/10/19 04:28:30;;;;;;;7.85;5.53;;;8.30;99.90;;;;;;5094265;28;19927;-72
2023/10/19 04:31:00;;;;;;;8.65;5.82;;;8.40;99.90;;;;;;5093545;28;20123;-71
2023/10/19 04:33:28;;;;;;;8.90;5.85;;;8.40;99.90;;;;;;5093577;28;20054;-71
2023/10/19 04:35:55;;;;;;;11.13;6.78;;;8.40;99.90;;;;;;5087716;28;20036;-71
2023/10/19 04:38:22;;;;;;;9.82;6.32;;;8.40;99.90;;;;;;5083397;28;20071;-71
2023/10/19 04:40:50;;;;;;;8.05;5.53;;;8.50;99.90;;;;;;5092775;28;20104;-71
2023/10/19 04:43:21;;;;;;;9.65;6.50;;;8.80;99.90;;;;;;5092314;28;20483;-71
2023/10/19 04:45:47;;;;;;;10.57;5.15;;;8.50;99.90;;;;;;5086875;28;20094;-71
2023/10/19 04:48:12;;;;;;;;;;;9.20;99.90;;;;;;5084617;28;20055;-71
2023/10/19 04:50:41;;;;;;;8.98;5.60;;;8.50;99.90;;;;;;5092463;28;20317;-75
2023/10/19 04:53:07;;;;;;;8.45;5.57;;;8.80;99.90;;;;;;5092921;28;20471;-75
2023/10/19 04:55:33;;;;;;;;;;;8.50;99.90;;;;;;5093725;28;20055;-71
2023/10/19 04:57:59;;;;;;;7.83;5.13;;;8.60;99.90;;;;;;5094710;28;19920;-73
2023/10/19 05:00:27;;;;;;;;;;;8.50;99.90;;;;;;5093700;28;20100;-78
2023/10/19 05:02:56;;;;;;;8.32;5.30;;;8.70;99.90;;;;;;5093389;28;19920;-75
2023/10/19 05:05:21;;;;;;;7.82;5.20;;;8.90;99.90;;;;;;5093859;28;20036;-72
2023/10/19 05:07:47;;;;;;;;;;;9.20;99.90;;;;;;5091643;28;20601;-71
2023/10/19 05:10:13;;;;;;;6.78;4.68;;;8.80;99.90;;;;;;5093326;28;20363;-74
2023/10/19 05:12:38;;;;;;;7.40;4.40;;;8.60;99.90;;;;;;5093505;28;20071;-75
2023/10/19 05:15:05;;;;;;;;;;;9.10;99.90;;;;;;5092872;28;20032;-75
2023/10/19 05:17:34;;;;;;;6.68;4.70;;;8.60;99.90;;;;;;5093196;28;19920;-79
2023/10/19 05:19:59;;;;;;;7.40;4.85;;;8.60;99.90;;;;;;5093391;28;20040;-74
2023/10/19 05:22:29;;;;;;;;;;;8.70;99.90;;;;;;5092626;28;20101;-76
2023/10/19 05:24:54;;;;;;;7.25;4.70;;;9.60;99.90;;;;;;5092928;28;19919;-77
2023/10/19 05:27:20;;;;;;;;;;;8.70;99.90;;;;;;5092895;28;20115;-77
2023/10/19 05:29:46;;;;;;;7.30;4.60;;;8.70;99.90;;;;;;5092249;28;19928;-77
2023/10/19 05:32:11;;;;;;;;;;;8.90;99.90;;;;;;5093061;28;20537;-75
2023/10/19 05:34:37;;;;;;;9.05;6.03;;;9.70;99.90;;;;;;5092782;28;19920;-76
2023/10/19 05:37:05;;;;;;;;;;;9.40;99.90;;;;;;5091823;28;20050;-77
2023/10/19 05:39:31;;;;;;;7.55;5.20;;;9.00;99.90;;;;;;5092540;28;19920;-77
2023/10/19 05:42:00;;;;;;;8.18;5.50;;;8.80;99.90;;;;;;5091692;28;20084;-77
2023/10/19 05:44:30;;;;;;;9.73;5.55;;;9.30;99.90;;;;;;5070033;28;20060;-77
2023/10/19 05:46:56;;;;;;;10.02;6.30;;;8.80;99.90;;;;;;5070105;28;20048;-77
2023/10/19 05:49:23;;;;;;;10.02;6.75;;;8.80;99.90;;;;;;5087730;28;20127;-77
2023/10/19 05:51:50;;;;;;;10.30;7.25;;;9.00;99.90;;;;;;5090944;28;20040;-76
2023/10/19 05:54:16;;;;;;;10.25;6.68;;;9.10;99.90;;;;;;5091053;28;20074;-77
2023/10/19 05:56:42;;;;;;;12.60;8.55;;;9.70;99.90;;;;;;5090481;28;20039;-77
2023/10/19 05:59:09;;;;;;;;;;;8.90;99.90;;;;;;5091418;28;20193;-76
2023/10/19 06:01:36;;;;;;;11.57;7.82;;;8.90;99.90;;;;;;5091992;28;19920;-74
2023/10/19 06:04:05;;;;;;;10.90;7.97;;;9.10;99.90;;;;;;5089263;28;20044;-72
2023/10/19 06:06:31;;;;;;;10.25;7.32;;;8.90;99.90;;;;;;5072285;28;20052;-82
2023/10/19 06:08:57;;;;;;;;;;;8.90;99.90;;;;;;5072354;28;20040;-74
2023/10/19 06:11:23;;;;;;;9.48;7.20;;;8.90;99.90;;;;;;5071363;28;19920;-76
2023/10/19 06:13:48;;;;;;;9.68;7.38;;;9.20;99.90;;;;;;5078506;28;20140;-77
2023/10/19 06:16:14;;;;;;;;;;;9.10;99.90;;;;;;5092094;28;20085;-74
2023/10/19 06:18:40;;;;;;;10.45;7.63;;;8.90;99.90;;;;;;5083516;28;20374;-75
2023/10/19 06:21:05;;;;;;;11.60;8.48;;;8.90;99.90;;;;;;5088668;28;20122;-74
2023/10/19 06:23:31;;;;;;;;;;;8.90;99.90;;;;;;5091042;28;20068;-73
2023/10/19 06:25:57;;;;;;;10.90;8.30;;;9.00;99.90;;;;;;5088667;28;19927;-74
2023/10/19 06:28:23;;;;;;;12.35;8.90;;;9.00;99.90;;;;;;5089825;28;20044;-74
2023/10/19 06:30:49;;;;;;;;;;;9.40;99.90;;;;;;5090077;28;20052;-74
2023/10/19 06:33:15;;;;;;;11.40;8.60;;;9.50;99.90;;;;;;5090656;28;19920;-74
2023/10/19 06:35:41;;;;;;;11.27;8.45;;;9.00;99.90;;;;;;5089790;28;20105;-73
2023/10/19 06:38:09;;;;;;;11.75;8.65;;;9.30;99.90;;;;;;5089187;28;20116;-73
2023/10/19 06:40:38;;;;;;;10.73;8.35;;;9.00;99.90;;;;;;5089503;28;20044;-73
2023/10/19 06:43:05;;;;;;;9.98;7.82;;;9.00;99.90;;;;;;5090975;28;20502;-73
2023/10/19 06:45:32;;;;;;;11.73;8.80;;;9.00;99.90;;;;;;5091478;28;20039;-73
2023/10/19 06:47:59;;;;;;;11.43;9.13;;;9.00;99.90;;;;;;5090282;28;20483;-74
2023/10/19 06:50:26;;;;;;;10.63;8.23;;;9.40;99.90;;;;;;5091808;28;20072;-74
2023/10/19 06:52:51;;;;;;;14.07;9.25;;;9.10;99.90;;;;;;5078024;28;20083;-74
2023/10/19 06:55:22;;;;;;;14.45;10.75;;;9.10;99.90;;;;;;5071430;28;20522;-74
2023/10/19 06:57:53;;;;;;;15.07;11.32;;;9.10;99.90;;;;;;5071134;28;20049;-74
2023/10/19 07:00:21;;;;;;;13.13;10.57;;;9.10;99.90;;;;;;5071024;28;20055;-74
2023/10/19 07:02:48;;;;;;;15.27;10.85;;;9.40;99.90;;;;;;5071130;28;20048;-74
2023/10/19 07:05:18;;;;;;;13.32;10.30;;;9.10;99.90;;;;;;5086009;28;20048;-74
2023/10/19 07:07:45;;;;;;;13.80;10.00;;;9.20;99.90;;;;;;5091042;28;20066;-74
2023/10/19 07:10:12;;;;;;;13.25;9.73;;;9.20;99.90;;;;;;5091172;28;20047;-74
2023/10/19 07:12:41;;;;;;;15.35;10.60;;;9.20;99.90;;;;;;5091417;28;20518;-74
2023/10/19 07:15:08;;;;;;;15.68;10.65;;;9.20;99.90;;;;;;5090238;28;20107;-74
2023/10/19 07:17:35;;;;;;;15.70;10.98;;;9.20;99.90;;;;;;5091476;28;20055;-74
2023/10/19 07:20:05;;;;;;;15.00;10.95;;;9.20;99.90;;;;;;5091132;28;20048;-74
2023/10/19 07:22:38;;;;;;;16.02;11.30;;;9.30;99.90;;;;;;5090780;28;20055;-74
2023/10/19 07:25:06;;;;;;;14.25;10.77;;;9.20;99.90;;;;;;5090546;28;20067;-74
2023/10/19 07:27:33;;;;;;;14.55;10.48;;;9.20;99.90;;;;;;5091690;28;20374;-74
2023/10/19 07:29:59;;;;;;;15.13;9.43;;;9.50;99.90;;;;;;5091475;28;20090;-73
2023/10/19 07:32:25;;;;;;;13.15;9.82;;;9.20;99.90;;;;;;5091229;28;20085;-73
2023/10/19 07:34:50;;;;;;;15.00;10.10;;;9.30;99.90;;;;;;5090629;28;20044;-73
2023/10/19 07:37:16;;;;;;;12.27;9.13;;;9.40;99.90;;;;;;5090881;28;20123;-73
2023/10/19 07:39:46;;;;;;;13.07;9.23;;;9.20;99.90;;;;;;5091108;28;20070;-73
2023/10/19 07:42:15;;;;;;;13.45;9.48;;;9.30;99.90;;;;;;5071896;28;20044;-73
2023/10/19 07:44:41;;;;;;;13.45;9.85;;;9.20;99.90;;;;;;5072141;28;20036;-73
2023/10/19 07:47:09;;;;;;;11.95;8.43;;;9.20;99.90;;;;;;5070375;28;20064;-73
2023/10/19 07:49:38;;;;;;;15.00;9.95;;;9.70;99.90;;;;;;5070313;28;20067;-73
2023/10/19 07:52:08;;;;;;;14.20;10.10;;;9.30;99.90;;;;;;5071178;28;20055;-73
2023/10/19 07:54:35;;;;;;;13.73;9.68;;;9.40;99.90;;;;;;5074928;28;20052;-73
2023/10/19 07:57:12;;;;;;;14.32;9.40;;;9.40;99.90;;;;;;5073593;28;20048;-73
2023/10/19 07:59:38;;;;;;;12.80;9.00;;;9.40;99.90;;;;;;5092868;28;20435;-73
2023/10/19 08:02:04;;;;;;;14.63;10.52;;;9.50;99.90;;;;;;5094257;28;20542;-73
2023/10/19 08:04:30;;;;;;;18.10;9.98;;;9.80;99.90;;;;;;5093318;28;20075;-73
2023/10/19 08:06:57;;;;;;;13.48;9.50;;;9.50;99.90;;;;;;5093967;28;20044;-74
2023/10/19 08:09:23;;;;;;;13.57;9.85;;;9.50;99.90;;;;;;5094785;28;20040;-73
2023/10/19 08:11:50;;;;;;;14.63;10.10;;;9.80;99.90;;;;;;5093073;28;20051;-73
2023/10/19 08:14:15;;;;;;;16.80;10.75;;;9.50;99.90;;;;;;5094477;28;20057;-74
2023/10/19 08:16:44;;;;;;;15.68;10.50;;;9.50;99.90;;;;;;5094563;28;20551;-73
2023/10/19 08:19:09;;;;;;;15.43;10.35;;;9.90;99.90;;;;;;5093349;28;20173;-73
2023/10/19 08:21:35;;;;;;;14.77;10.70;;;9.60;99.90;;;;;;5080069;28;20127;-73
2023/10/19 08:24:04;;;;;;;16.20;10.70;;;9.70;99.90;;;;;;5073889;28;20048;-73
2023/10/19 08:26:30;;;;;;;18.73;11.43;;;9.60;99.90;;;;;;5073990;28;20072;-73
2023/10/19 08:28:58;;;;;;;16.23;11.93;;;9.70;99.90;;;;;;5073937;28;20059;-73
2023/10/19 08:31:24;;;;;;;16.02;11.43;;;9.70;99.90;;;;;;5073559;28;20049;-73
2023/10/19 08:33:50;;;;;;;17.63;11.45;;;9.70;99.90;;;;;;5088131;28;20051;-73
2023/10/19 08:36:22;;;;;;;17.40;11.63;;;9.70;99.90;;;;;;5094150;28;20143;-73
2023/10/19 08:38:47;;;;;;;15.75;11.40;;;9.70;99.90;;;;;;5093444;28;20130;-73
2023/10/19 08:41:15;;;;;;;16.30;11.73;;;10.20;99.90;;;;;;5094307;28;20131;-72
2023/10/19 08:43:41;;;;;;;15.80;11.30;;;9.80;99.90;;;;;;5094475;28;20048;-73
2023/10/19 08:46:07;;;;;;;16.48;11.80;;;9.80;99.90;;;;;;5093178;28;20456;-73
2023/10/19 08:48:38;;;;;;;16.88;11.63;;;10.30;99.90;;;;;;5093988;28;20043;-73
2023/10/19 08:51:09;;;;;;;16.88;11.38;;;9.80;99.90;;;;;;5093748;28;20040;-73
2023/10/19 08:53:40;;;;;;;15.93;11.40;;;9.90;99.90;;;;;;5093320;28;20044;-73
2023/10/19 08:56:07;;;;;;;20.42;12.60;;;9.90;99.90;;;;;;5094827;28;20051;-72
2023/10/19 08:58:34;;;;;;;19.77;11.88;;;10.00;99.90;;;;;;5093759;28;20092;-73
2023/10/19 09:01:06;;;;;;;16.55;11.38;;;10.00;99.90;;;;;;5092219;28;20063;-73
2023/10/19 09:03:35;;;;;;;17.45;11.63;;;10.00;99.90;;;;;;5086214;28;20052;-73
2023/10/19 09:06:02;;;;;;;17.30;11.57;;;10.10;99.90;;;;;;5089639;28;20043;-74
2023/10/19 09:08:38;;;;;;;15.52;11.20;;;10.00;99.90;;;;;;5089456;28;20040;-74
2023/10/19 09:11:13;;;;;;;18.58;12.75;;;10.10;99.90;;;;;;5089646;28;20044;-74
2023/10/19 09:13:52;;;;;;;20.57;13.00;;;10.10;99.90;;;;;;5090690;28;20379;-73
2023/10/19 09:16:20;;;;;;;18.67;13.20;;;10.20;99.90;;;;;;5093264;28;20437;-73
2023/10/19 09:18:47;;;;;;;20.58;13.65;;;10.20;99.90;;;;;;5093682;28;20070;-73
2023/10/19 09:21:24;;;;;;;18.65;13.23;;;10.10;99.90;;;;;;5092547;28;20051;-74
2023/10/19 09:23:54;;;;;;;18.48;12.57;;;10.50;99.90;;;;;;5092671;28;20044;-73
2023/10/19 09:26:21;;;;;;;20.25;13.63;;;10.20;99.90;;;;;;5093552;28;20039;-74
2023/10/19 09:28:52;;;;;;;22.42;13.98;;;10.20;99.90;;;;;;5092078;28;20388;-74
2023/10/19 09:31:20;;;;;;;23.17;14.00;;;10.20;99.90;;;;;;5093613;28;20059;-74
2023/10/19 09:33:47;;;;;;;24.90;14.25;;;10.20;99.90;;;;;;5093323;28;20039;-74
2023/10/19 09:36:14;;;;;;;20.58;13.85;;;11.20;99.90;;;;;;5092185;28;20486;-74
2023/10/19 09:38:52;;;;;;;20.05;13.43;;;10.30;99.90;;;;;;5092525;28;20044;-73
2023/10/19 09:41:21;;;;;;;21.98;13.20;;;10.30;99.90;;;;;;5093372;28;20051;-74
2023/10/19 09:43:51;;;;;;;21.00;13.38;;;10.80;99.90;;;;;;5091567;28;20036;-74
2023/10/19 09:46:23;;;;;;;18.95;12.32;;;10.40;99.90;;;;;;5094196;28;20056;-74
2023/10/19 09:48:48;;;;;;;23.25;13.50;;;10.40;99.90;;;;;;5091695;28;20437;-74
2023/10/19 09:51:16;;;;;;;18.38;12.63;;;10.70;99.90;;;;;;5093012;28;20044;-73
2023/10/19 09:54:03;;;;;;;19.85;13.00;;;10.40;99.90;;;;;;5092678;28;20050;-74
2023/10/19 09:56:49;;;;;;;21.45;13.35;;;10.60;99.90;;;;;;5077465;28;20071;-73
2023/10/19 09:59:38;;;;;;;31.92;17.35;;;10.70;99.90;;;;;;5092630;28;20070;-74
2023/10/19 10:02:15;;;;;;;29.08;22.48;;;10.60;99.90;;;;;;5092335;28;20044;-74
2023/10/19 10:04:42;;;;;;;25.42;17.77;;;10.70;99.90;;;;;;5091634;28;20483;-73
2023/10/19 10:07:12;;;;;;;54.40;37.30;;;10.60;99.90;;;;;;5092464;28;20040;-73
2023/10/19 10:09:45;;;;;;;24.85;19.23;;;10.70;99.90;;;;;;5091188;28;20052;-74
2023/10/19 10:12:24;;;;;;;22.50;16.98;;;10.70;99.90;;;;;;5092426;28;20126;-73
2023/10/19 10:15:07;;;;;;;23.08;15.23;;;10.70;99.90;;;;;;5092140;28;20047;-74
2023/10/19 10:17:34;;;;;;;30.15;26.25;;;10.80;99.90;;;;;;5090870;28;20070;-74
2023/10/19 10:20:17;;;;;;;21.65;14.98;;;10.80;99.90;;;;;;5091545;28;20044;-74
2023/10/19 10:22:43;;;;;;;29.83;21.98;;;10.90;99.90;;;;;;5092172;28;20527;-74
2023/10/19 10:25:27;;;;;;;28.00;20.10;;;10.90;99.90;;;;;;5091066;28;20047;-74
2023/10/19 10:27:53;;;;;;;23.65;16.35;;;11.20;99.90;;;;;;5092606;28;20382;-73
2023/10/19 10:30:20;;;;;;;52.03;32.00;;;11.10;99.90;;;;;;5092300;28;20036;-74
2023/10/19 10:32:47;;;;;;;26.92;18.92;;;11.10;99.90;;;;;;5091360;28;20043;-73
2023/10/19 10:35:41;;;;;;;19.58;13.52;;;11.10;99.90;;;;;;5091900;28;20126;-73
2023/10/19 10:38:17;;;;;;;17.95;11.88;;;11.10;99.90;;;;;;5090807;28;20044;-74
2023/10/19 10:40:50;;;;;;;18.50;13.07;;;11.30;99.90;;;;;;5092174;28;20040;-74
2023/10/19 10:43:17;;;;;;;19.98;14.05;;;11.10;99.90;;;;;;5091360;28;20044;-73
2023/10/19 10:45:43;;;;;;;24.00;16.83;;;11.70;99.90;;;;;;5090728;28;20035;-74
2023/10/19 10:48:17;;;;;;;18.67;14.15;;;11.20;99.90;;;;;;5091417;28;20434;-74
2023/10/19 10:50:45;;;;;;;19.55;13.75;;;11.20;99.90;;;;;;5091397;28;20048;-74
2023/10/19 10:53:11;;;;;;;18.77;13.57;;;11.30;99.90;;;;;;5090954;28;20090;-74
2023/10/19 10:55:37;;;;;;;18.55;14.68;;;11.30;99.90;;;;;;5091829;28;20491;-74
2023/10/19 10:58:03;;;;;;;20.33;15.38;;;11.60;99.90;;;;;;5091316;28;20047;-74
2023/10/19 11:00:32;;;;;;;22.67;13.90;;;11.40;99.90;;;;;;5090756;28;20052;-74
2023/10/19 11:03:09;;;;;;;17.83;13.32;;;11.60;99.90;;;;;;5091405;28;20127;-74
2023/10/19 11:05:37;;;;;;;14.93;12.25;;;12.30;99.90;;;;;;5091492;28;20114;-74
2023/10/19 11:08:20;;;;;;;15.57;12.70;;;11.80;99.90;;;;;;5090488;28;20056;-75
2023/10/19 11:10:47;;;;;;;16.02;12.20;;;12.00;99.90;;;;;;5090822;28;20075;-74
2023/10/19 11:13:16;;;;;;;18.63;13.18;;;12.30;99.90;;;;;;5090898;28;20507;-75
2023/10/19 11:16:09;;;;;;;16.10;12.40;;;12.60;99.90;;;;;;5091681;28;20508;-74
2023/10/19 11:18:45;;;;;;;18.90;12.93;;;12.80;99.90;;;;;;5090087;28;20067;-74
2023/10/19 11:21:14;;;;;;;15.32;12.13;;;13.00;99.90;;;;;;5091736;28;20056;-75
2023/10/19 11:23:52;;;;;;;24.90;16.52;;;13.20;99.90;;;;;;5092669;28;20040;-74
2023/10/19 11:26:20;;;;;;;18.13;11.30;;;13.20;99.90;;;;;;5091611;28;20044;-74
2023/10/19 11:28:54;;;;;;;15.40;11.30;;;13.10;99.90;;;;;;5093906;28;20487;-74
2023/10/19 11:31:24;;;;;;;15.20;11.45;;;13.00;99.90;;;;;;5095479;28;20043;-73
2023/10/19 11:33:56;;;;;;;16.75;12.20;;;12.90;99.90;;;;;;5095976;28;20518;-74
2023/10/19 11:36:24;;;;;;;17.20;12.88;;;12.90;99.90;;;;;;5094931;28;20044;-74
2023/10/19 11:38:51;;;;;;;15.10;11.63;;;12.80;99.90;;;;;;5094963;28;20052;-74
2023/10/19 11:41:17;;;;;;;14.50;11.00;;;12.70;99.90;;;;;;5094234;28;20871;-74
2023/10/19 11:43:45;;;;;;;15.77;11.65;;;12.80;99.90;;;;;;5095498;28;20047;-74
2023/10/19 11:46:11;;;;;;;12.85;10.43;;;12.80;99.90;;;;;;5094951;28;20483;-74
2023/10/19 11:48:39;;;;;;;13.43;10.57;;;13.00;99.90;;;;;;5094874;28;20082;-74
2023/10/19 11:51:06;;;;;;;14.52;11.57;;;13.00;99.90;;;;;;5094419;28;20063;-74
2023/10/19 11:53:36;;;;;;;18.15;13.18;;;13.10;99.90;;;;;;5095243;28;20048;-74
2023/10/19 11:56:07;;;;;;;17.52;11.77;;;13.20;99.90;;;;;;5093806;28;20036;-75
2023/10/19 11:58:34;;;;;;;16.00;13.15;;;13.20;99.90;;;;;;5094460;28;20054;-74
2023/10/19 12:01:12;;;;;;;16.95;12.70;;;13.00;99.90;;;;;;5094968;28;20044;-74
2023/10/19 12:03:40;;;;;;;18.83;12.63;;;12.80;99.90;;;;;;5094377;28;20495;-75
2023/10/19 12:06:10;;;;;;;19.75;13.43;;;12.80;99.90;;;;;;5094421;28;20040;-74
2023/10/19 12:08:37;;;;;;;17.15;13.10;;;12.80;99.90;;;;;;5094727;28;20044;-73
2023/10/19 12:11:22;;;;;;;17.23;13.15;;;12.80;99.90;;;;;;5095027;28;20522;-73
2023/10/19 12:13:49;;;;;;;17.05;13.10;;;12.80;99.90;;;;;;5094586;28;20484;-73
2023/10/19 12:16:15;;;;;;;15.52;10.65;;;12.80;99.90;;;;;;5093877;28;20086;-74
2023/10/19 12:18:42;;;;;;;18.55;13.25;;;12.70;99.90;;;;;;5093758;28;20042;-74
2023/10/19 12:21:11;;;;;;;21.70;13.90;;;12.50;99.90;;;;;;5093743;28;20052;-74
2023/10/19 12:23:39;;;;;;;14.80;9.98;;;12.50;99.90;;;;;;5093702;28;20048;-74
2023/10/19 12:26:10;;;;;;;13.90;9.73;;;12.50;99.90;;;;;;5093795;28;20056;-74
2023/10/19 12:28:38;;;;;;;13.00;9.98;;;12.30;99.90;;;;;;5094748;28;20063;-74
2023/10/19 12:31:05;;;;;;;14.50;10.32;;;12.40;99.90;;;;;;5093555;28;20437;-74
2023/10/19 12:33:31;;;;;;;13.70;9.80;;;12.20;99.90;;;;;;5094136;28;20494;-73
2023/10/19 12:35:57;;;;;;;15.98;11.25;;;12.10;99.90;;;;;;5094141;28;20052;-73
2023/10/19 12:38:23;;;;;;;16.80;13.10;;;12.10;99.90;;;;;;5093028;28;20052;-73
2023/10/19 12:40:51;;;;;;;16.95;11.65;;;12.20;99.90;;;;;;5092950;28;20139;-73
2023/10/19 12:43:24;;;;;;;14.73;11.65;;;12.10;99.90;;;;;;5095409;28;20097;-74
2023/10/19 12:45:53;;;;;;;19.92;13.73;;;12.10;99.90;;;;;;5093001;28;20044;-73
2023/10/19 12:48:20;;;;;;;16.35;11.05;;;12.00;99.90;;;;;;5094665;28;20113;-73
2023/10/19 12:50:46;;;;;;;14.52;8.85;;;11.90;99.90;;;;;;5093951;28;20079;-74
2023/10/19 12:53:13;;;;;;;21.95;11.57;;;;;;;;;;5092973;28;20087;-73
2023/10/19 12:55:39;;;;;;;22.90;12.45;;;11.80;99.90;;;;;;5094662;28;20123;-73
2023/10/19 12:58:09;;;;;;;18.25;10.88;;;11.70;99.90;;;;;;5093218;28;20119;-73
2023/10/19 13:00:41;;;;;;;11.77;8.52;;;11.90;99.90;;;;;;5072939;28;20488;-73
2023/10/19 13:03:13;;;;;;;12.93;9.07;;;11.50;99.90;;;;;;5088437;28;20097;-73
2023/10/19 13:05:40;;;;;;;12.52;8.75;;;11.50;99.90;;;;;;5093061;28;20044;-73
2023/10/19 13:08:07;;;;;;;11.00;8.88;;;11.80;99.90;;;;;;5093157;28;20095;-73
2023/10/19 13:10:34;;;;;;;12.02;8.50;;;11.40;99.90;;;;;;5093336;28;20042;-74
2023/10/19 13:13:04;;;;;;;12.80;9.13;;;11.30;99.90;;;;;;5092432;28;20059;-73
2023/10/19 13:15:35;;;;;;;14.93;9.90;;;11.50;99.90;;;;;;5093332;28;20399;-73
2023/10/19 13:18:07;;;;;;;12.07;9.55;;;11.30;99.90;;;;;;5092953;28;20062;-73
2023/10/19 13:20:34;;;;;;;15.55;10.23;;;11.30;99.90;;;;;;5092687;28;20071;-73
2023/10/19 13:23:04;;;;;;;9.98;7.85;;;11.20;99.90;;;;;;5090952;28;20499;-74
2023/10/19 13:25:41;;;;;;;11.68;8.43;;;11.20;99.90;;;;;;5085028;28;20093;-74